Strait of Belle Isle - western half: Past 24 Hour Conditions

 

St. Lawrence

11:30 AM NDT 24 April 2014
This table is a summary of hourly weather conditions for the past 24 hours.
Date / Time
(NDT)
Wind(knots) Conditions Visibility(km) Pressure(kPa) Air tempC) Relative humidity(%) Dew pointC)
24 April 2014
11:30 NE 33 gust 44 N/A N/A 100.1 3 74 -1
10:30 NE 28 gust 40 N/A N/A 100.1 3 75 -1
9:30 NE 29 gust 38 N/A N/A 100.1 2 78 -1
8:30 NE 24 gust 34 N/A N/A 100.2 2 78 -1
7:30 NE 28 gust 36 N/A N/A 100.1 1 81 -2
6:30 NE 30 gust 38 N/A N/A 100.0 1 82 -2
5:30 NE 32 gust 42 N/A N/A 100.0 1 82 -2
4:30 NE 24 gust 35 N/A N/A 100.0 1 81 -2
3:30 NE 27 gust 36 N/A N/A 100.0 1 81 -2
2:30 NE 24 gust 33 N/A N/A 100.1 1 78 -2
1:30 NE 22 gust 30 N/A N/A 100.1 1 79 -2
0:30 NE 23 gust 31 N/A N/A 100.1 1 84 -2
23 April 2014
23:30 NE 20 gust 27 N/A N/A 100.2 1 90 -1
22:30 NE 21 gust 34 N/A N/A 100.2 1 91 0
21:30 NE 23 gust 29 N/A N/A 100.3 1 91 0
20:30 NE 20 gust 30 N/A N/A 100.2 2 90 0
19:30 NE 17 gust 29 N/A N/A 100.3 3 87 1
18:30 NE 20 gust 28 N/A N/A 100.3 4 80 1
17:30 NE 17 gust 27 N/A N/A 100.3 6 76 2
16:30 ENE 20 gust 26 N/A N/A 100.3 6 75 2
15:30 ENE 22 N/A N/A 100.4 6 75 2
14:30 NE 17 gust 23 N/A N/A 100.5 6 76 2
13:30 ENE 18 gust 25 N/A N/A 100.5 6 75 2
12:30 ENE 14 gust 21 N/A N/A 100.6 6 76 2
11:30 ENE 17 N/A N/A 100.7 5 85 3
 
Map of Atlantic - Newfoundland marine weather areas Southwestern Grand Banks - 44138 Banquereau - 44139 Tail of the Bank - 44140 Nickerson Bank - 44251 Northeast Burgeo Bank - 44255 Blanc-Sablon Airport Cap Whittle Chevery Natashquan Airport Heath Point Miscou Island Grand Étang Ingonish Beach North Mountain St.Paul Island J.A. Douglas McCurdy Sydney Airport Charlottetown Airport East Point North Cape Argentia Bonavista Burgeo Cape Race Corner Brook Daniel's Harbour Englee Ferolle Point La Scie Port aux Basques Rocky Harbour Sagona Island St. Anthony Airport St. John's Int'l Airport St. Lawrence Stephenville Airport Twillingate Winterland Wreckhouse Cartwright Airport Mary's Harbour Grates Cove Pool's Island Marticot Island Long Pond Îles de la Madeleine Airport
Legend: buoyBuoy land stationLand Station